Time;durP1;ratioP1;P1;durP2;ratioP2;P2;SDS_P1;SDS_P2;PMS_P1;PMS_P2;Temp;Humidity;BMP_temperature;BMP_pressure;BME280_temperature;BME280_humidity;BME280_pressure;Samples;Min_cycle;Max_cycle;Signal;HPM_P1;HPM_P2
2020/12/02 00:01:11;;;;;;;40.92;29.67;;;;;;;;;;5093554;28;20333;-62
2020/12/02 00:03:41;;;;;;;42.20;30.05;;;;;;;;;;5093902;28;20197;-63
2020/12/02 00:06:08;;;;;;;37.65;28.13;;;;;;;;;;5093496;28;20207;-63
2020/12/02 00:08:37;;;;;;;38.95;27.33;;;;;;;;;;5093709;28;20223;-63
2020/12/02 00:11:06;;;;;;;40.08;28.95;;;;;;;;;;5093624;28;20228;-63
2020/12/02 00:13:34;;;;;;;40.65;28.95;;;;;;;;;;5093741;28;20208;-64
2020/12/02 00:16:01;;;;;;;40.50;28.65;;;;;;;;;;5094080;28;20204;-63
2020/12/02 00:18:28;;;;;;;43.30;28.52;;;;;;;;;;5093775;28;20200;-63
2020/12/02 00:20:55;;;;;;;43.13;29.67;;;;;;;;;;5094023;28;20220;-63
2020/12/02 00:23:22;;;;;;;39.47;27.60;;;;;;;;;;5096411;28;20204;-62
2020/12/02 00:25:49;;;;;;;41.65;28.15;;;;;;;;;;5098311;28;20200;-62
2020/12/02 00:28:16;;;;;;;39.25;27.25;;;;;;;;;;5097880;28;20250;-63
2020/12/02 00:30:43;;;;;;;46.38;31.35;;;;;;;;;;5098471;28;20307;-63
2020/12/02 00:33:10;;;;;;;39.20;29.73;;;;;;;;;;5098548;28;20273;-62
2020/12/02 00:35:38;;;;;;;42.95;28.20;;;;;;;;;;5098262;28;20204;-63
2020/12/02 00:38:07;;;;;;;47.90;31.70;;;;;;;;;;5097620;28;20667;-63
2020/12/02 00:40:34;;;;;;;38.67;27.83;;;;;;;;;;5097667;28;20632;-63
2020/12/02 00:43:01;;;;;;;40.13;27.73;;;;;;;;;;5099861;28;20204;-64
2020/12/02 00:45:28;;;;;;;39.05;27.50;;;;;;;;;;5098655;28;20253;-63
2020/12/02 00:47:54;;;;;;;37.80;26.48;;;;;;;;;;5097671;28;20223;-63
2020/12/02 00:50:22;;;;;;;38.25;28.40;;;;;;;;;;5097690;28;20220;-63
2020/12/02 00:52:58;;;;;;;40.10;28.88;;;;;;;;;;5097229;28;20340;-62
2020/12/02 00:55:26;;;;;;;39.58;28.00;;;;;;;;;;5105056;28;20204;-63
2020/12/02 00:57:54;;;;;;;38.78;26.70;;;;;;;;;;5106302;28;20226;-64
2020/12/02 01:00:21;;;;;;;39.70;27.20;;;;;;;;;;5099148;28;20277;-63
2020/12/02 01:02:54;;;;;;;41.60;28.35;;;;;;;;;;5100703;28;20664;-64
2020/12/02 01:05:22;;;;;;;39.55;27.80;;;;;;;;;;5096689;28;20253;-64
2020/12/02 01:07:49;;;;;;;40.92;28.25;;;;;;;;;;5096968;28;20253;-62
2020/12/02 01:10:16;;;;;;;36.63;27.85;;;;;;;;;;5097436;28;20282;-63
2020/12/02 01:12:45;;;;;;;38.42;26.45;;;;;;;;;;5097280;28;20258;-63
2020/12/02 01:15:12;;;;;;;36.05;25.38;;;;;;;;;;5096796;28;20283;-63
2020/12/02 01:17:39;;;;;;;37.35;26.85;;;;;;;;;;5096627;28;20200;-62
2020/12/02 01:20:06;;;;;;;37.65;26.23;;;;;;;;;;5096461;28;20220;-62
2020/12/02 01:22:35;;;;;;;41.78;28.10;;;;;;;;;;5096522;28;20196;-63
2020/12/02 01:25:05;;;;;;;38.33;24.80;;;;;;;;;;5096932;28;20249;-64
2020/12/02 01:27:34;;;;;;;37.55;24.80;;;;;;;;;;5096778;28;20249;-63
2020/12/02 01:30:02;;;;;;;36.03;25.73;;;;;;;;;;5098632;28;20274;-63
2020/12/02 01:32:28;;;;;;;40.35;26.85;;;;;;;;;;5104042;28;20249;-64
2020/12/02 01:34:55;;;;;;;36.95;25.45;;;;;;;;;;5098704;28;20218;-62
2020/12/02 01:37:30;;;;;;;36.47;26.23;;;;;;;;;;5097595;28;20200;-63
2020/12/02 01:40:01;;;;;;;36.22;24.85;;;;;;;;;;5096838;28;20220;-63
2020/12/02 01:42:27;;;;;;;38.35;25.65;;;;;;;;;;5097645;28;20233;-63
2020/12/02 01:44:54;;;;;;;37.10;26.40;;;;;;;;;;5097993;28;20201;-64
2020/12/02 01:47:26;;;;;;;38.40;25.00;;;;;;;;;;5096415;28;20200;-63
2020/12/02 01:49:56;;;;;;;35.97;25.40;;;;;;;;;;5096366;28;20644;-63
2020/12/02 01:52:34;;;;;;;35.38;25.63;;;;;;;;;;5096136;28;20706;-64
2020/12/02 01:55:03;;;;;;;36.92;26.42;;;;;;;;;;5096037;28;20697;-63
2020/12/02 01:57:31;;;;;;;38.03;26.48;;;;;;;;;;5097443;28;20257;-62
2020/12/02 02:00:02;;;;;;;38.67;26.20;;;;;;;;;;5097594;28;20265;-63
2020/12/02 02:02:35;;;;;;;39.20;26.67;;;;;;;;;;5097704;28;20189;-63
2020/12/02 02:05:07;;;;;;;36.53;26.75;;;;;;;;;;5096788;28;20185;-63
2020/12/02 02:07:34;;;;;;;37.92;26.35;;;;;;;;;;5095717;28;20188;-64
2020/12/02 02:10:07;;;;;;;36.22;25.38;;;;;;;;;;5096663;28;20356;-63
2020/12/02 02:12:57;;;;;;;40.20;26.42;;;;;;;;;;5096565;28;20188;-63
2020/12/02 02:15:29;;;;;;;34.08;24.83;;;;;;;;;;5096723;28;20185;-63
2020/12/02 02:17:58;;;;;;;38.88;26.67;;;;;;;;;;5097504;28;20238;-63
2020/12/02 02:20:27;;;;;;;38.97;26.98;;;;;;;;;;5095725;28;20712;-64
2020/12/02 02:22:53;;;;;;;37.45;25.08;;;;;;;;;;5099238;28;20254;-63
2020/12/02 02:25:20;;;;;;;40.83;25.90;;;;;;;;;;5095658;28;20273;-64
2020/12/02 02:27:48;;;;;;;38.85;25.02;;;;;;;;;;5094992;28;20200;-63
2020/12/02 02:30:15;;;;;;;37.90;25.45;;;;;;;;;;5095017;28;20224;-63
2020/12/02 02:32:42;;;;;;;36.30;25.20;;;;;;;;;;5095476;28;20269;-62
2020/12/02 02:35:08;;;;;;;35.72;25.17;;;;;;;;;;5095321;28;20201;-62
2020/12/02 02:37:35;;;;;;;34.95;24.65;;;;;;;;;;5096550;28;20257;-63
2020/12/02 02:40:04;;;;;;;37.15;24.92;;;;;;;;;;5096894;28;20217;-64
2020/12/02 02:42:32;;;;;;;38.63;25.30;;;;;;;;;;5096917;28;20204;-64
2020/12/02 02:45:00;;;;;;;40.28;25.20;;;;;;;;;;5097750;28;20257;-63
2020/12/02 02:47:27;;;;;;;36.65;25.58;;;;;;;;;;5097651;28;20201;-63
2020/12/02 02:49:54;;;;;;;38.08;24.88;;;;;;;;;;5099228;28;20228;-63
2020/12/02 02:52:21;;;;;;;36.95;26.45;;;;;;;;;;5097345;28;20260;-63
2020/12/02 02:54:47;;;;;;;36.58;26.65;;;;;;;;;;5096999;28;20250;-63
2020/12/02 02:57:15;;;;;;;35.95;26.42;;;;;;;;;;5098258;28;20253;-64
2020/12/02 02:59:41;;;;;;;39.13;26.92;;;;;;;;;;5097219;28;20216;-62
2020/12/02 03:02:11;;;;;;;36.67;25.52;;;;;;;;;;5096946;28;20246;-65
2020/12/02 03:04:38;;;;;;;37.72;27.35;;;;;;;;;;5097783;28;20283;-64
2020/12/02 03:07:10;;;;;;;40.80;27.48;;;;;;;;;;5099720;28;20230;-63
2020/12/02 03:09:37;;;;;;;38.33;26.40;;;;;;;;;;5094610;28;20228;-63
2020/12/02 03:12:04;;;;;;;33.33;24.30;;;;;;;;;;5094405;28;20262;-63
2020/12/02 03:14:31;;;;;;;34.65;24.92;;;;;;;;;;5094421;28;20204;-64
2020/12/02 03:16:59;;;;;;;39.15;24.90;;;;;;;;;;5094329;28;20212;-63
2020/12/02 03:19:28;;;;;;;32.22;24.80;;;;;;;;;;5094299;28;20217;-64
2020/12/02 03:21:56;;;;;;;37.58;24.67;;;;;;;;;;5094790;28;20200;-63
2020/12/02 03:24:25;;;;;;;37.67;25.02;;;;;;;;;;5094847;28;20204;-63
2020/12/02 03:26:51;;;;;;;32.75;24.40;;;;;;;;;;5094193;28;20204;-63
2020/12/02 03:29:18;;;;;;;35.97;25.15;;;;;;;;;;5094121;28;20227;-63
2020/12/02 03:31:45;;;;;;;33.05;24.27;;;;;;;;;;5094881;28;20204;-63
2020/12/02 03:34:13;;;;;;;38.08;25.98;;;;;;;;;;5095937;28;20242;-63
2020/12/02 03:36:41;;;;;;;32.53;24.42;;;;;;;;;;5095917;28;20204;-63
2020/12/02 03:39:09;;;;;;;36.30;26.00;;;;;;;;;;5094819;28;20220;-63
2020/12/02 03:41:36;;;;;;;35.63;23.23;;;;;;;;;;5095121;28;20200;-63
2020/12/02 03:44:02;;;;;;;37.75;24.55;;;;;;;;;;5096315;28;20200;-61
2020/12/02 03:46:29;;;;;;;38.45;25.30;;;;;;;;;;5097389;28;20234;-63
2020/12/02 03:48:56;;;;;;;34.70;23.33;;;;;;;;;;5094732;28;20349;-62
2020/12/02 03:51:22;;;;;;;35.85;25.15;;;;;;;;;;5094095;28;20204;-62
2020/12/02 03:53:50;;;;;;;36.45;25.65;;;;;;;;;;5094660;28;20200;-61
2020/12/02 03:56:19;;;;;;;35.85;26.10;;;;;;;;;;5094489;28;20208;-62
2020/12/02 03:58:46;;;;;;;33.42;24.25;;;;;;;;;;5093399;28;20289;-63
2020/12/02 04:01:12;;;;;;;39.75;26.60;;;;;;;;;;5094305;28;20200;-63
2020/12/02 04:03:39;;;;;;;37.10;23.95;;;;;;;;;;5094129;28;20249;-63
2020/12/02 04:07:24;;;;;;;40.45;25.30;;;;;;;;;;5112487;27;20548;-63
2020/12/02 04:09:51;;;;;;;34.28;25.70;;;;;;;;;;5117171;28;20227;-63
2020/12/02 04:12:18;;;;;;;36.75;26.02;;;;;;;;;;5114894;28;20670;-63
2020/12/02 04:14:44;;;;;;;38.50;24.40;;;;;;;;;;5115908;28;20199;-63
2020/12/02 04:17:11;;;;;;;33.75;23.80;;;;;;;;;;5117740;28;20196;-63
2020/12/02 04:19:38;;;;;;;38.80;25.75;;;;;;;;;;5118873;28;20280;-64
2020/12/02 04:22:04;;;;;;;34.70;25.27;;;;;;;;;;5117969;28;20667;-64
2020/12/02 04:24:32;;;;;;;34.95;26.20;;;;;;;;;;5122361;28;20640;-63
2020/12/02 04:26:59;;;;;;;36.33;25.98;;;;;;;;;;5117859;28;20289;-64
2020/12/02 04:29:26;;;;;;;37.25;25.50;;;;;;;;;;5115029;28;20273;-63
2020/12/02 04:31:52;;;;;;;38.03;25.88;;;;;;;;;;5115544;28;20200;-62
2020/12/02 04:34:19;;;;;;;37.90;26.95;;;;;;;;;;5113524;28;20276;-63
2020/12/02 04:36:48;;;;;;;36.00;25.92;;;;;;;;;;5113756;28;20204;-63
2020/12/02 04:39:15;;;;;;;41.25;26.95;;;;;;;;;;5113877;28;20759;-64
2020/12/02 04:41:43;;;;;;;38.83;25.35;;;;;;;;;;5111351;28;20207;-63
2020/12/02 04:44:10;;;;;;;37.25;25.02;;;;;;;;;;5110931;28;20203;-64
2020/12/02 04:46:38;;;;;;;34.75;23.63;;;;;;;;;;5110403;28;20216;-64
2020/12/02 04:49:11;;;;;;;33.85;25.20;;;;;;;;;;5110707;28;20251;-63
2020/12/02 04:51:38;;;;;;;40.78;28.52;;;;;;;;;;5110885;28;20184;-64
2020/12/02 04:54:05;;;;;;;37.10;24.75;;;;;;;;;;5110595;28;20204;-64
2020/12/02 04:56:32;;;;;;;38.95;26.52;;;;;;;;;;5111062;28;20221;-64
2020/12/02 04:58:59;;;;;;;38.10;25.75;;;;;;;;;;5110757;28;20272;-63
2020/12/02 05:01:28;;;;;;;38.33;25.55;;;;;;;;;;5111791;28;20203;-63
2020/12/02 05:03:58;;;;;;;36.58;25.05;;;;;;;;;;5111524;28;20237;-63
2020/12/02 05:06:26;;;;;;;40.33;27.48;;;;;;;;;;5110578;28;20216;-63
2020/12/02 05:09:03;;;;;;;36.45;26.30;;;;;;;;;;5110755;28;20269;-63
2020/12/02 05:11:30;;;;;;;35.92;24.17;;;;;;;;;;5110448;28;20202;-62
2020/12/02 05:14:00;;;;;;;39.90;25.45;;;;;;;;;;5110628;28;20204;-63
2020/12/02 05:16:27;;;;;;;37.17;24.75;;;;;;;;;;5112433;28;20200;-63
2020/12/02 05:19:04;;;;;;;34.83;24.73;;;;;;;;;;5099227;28;20234;-63
2020/12/02 05:21:31;;;;;;;37.25;24.27;;;;;;;;;;5099941;28;20222;-63
2020/12/02 05:24:05;;;;;;;39.45;25.58;;;;;;;;;;5099517;28;20204;-63
2020/12/02 05:26:34;;;;;;;34.22;23.85;;;;;;;;;;5098072;28;20745;-62
2020/12/02 05:29:05;;;;;;;32.38;23.48;;;;;;;;;;5098919;28;20250;-64
2020/12/02 05:31:33;;;;;;;36.38;26.48;;;;;;;;;;5098584;28;20189;-63
2020/12/02 05:34:06;;;;;;;34.08;24.75;;;;;;;;;;5096876;28;20204;-63
2020/12/02 05:36:33;;;;;;;37.00;24.55;;;;;;;;;;5096496;28;20188;-63
2020/12/02 05:39:02;;;;;;;36.60;24.95;;;;;;;;;;5095759;28;20667;-63
2020/12/02 05:41:29;;;;;;;37.10;25.70;;;;;;;;;;5096343;28;20232;-63
2020/12/02 05:43:58;;;;;;;36.72;26.00;;;;;;;;;;5096013;28;20203;-63
2020/12/02 05:46:29;;;;;;;35.58;25.38;;;;;;;;;;5095834;28;20213;-62
2020/12/02 05:48:59;;;;;;;37.50;26.13;;;;;;;;;;5096147;28;20241;-63
2020/12/02 05:51:26;;;;;;;34.75;24.52;;;;;;;;;;5096500;28;20299;-62
2020/12/02 05:53:55;;;;;;;34.45;25.63;;;;;;;;;;5097355;28;20604;-62
2020/12/02 05:56:22;;;;;;;40.80;26.00;;;;;;;;;;5097848;28;20196;-63
2020/12/02 05:58:49;;;;;;;33.55;24.30;;;;;;;;;;5098293;28;20200;-63
2020/12/02 06:01:17;;;;;;;38.38;26.52;;;;;;;;;;5097898;28;20660;-63
2020/12/02 06:03:46;;;;;;;40.50;25.60;;;;;;;;;;5097214;28;20204;-62
2020/12/02 06:06:14;;;;;;;35.40;25.60;;;;;;;;;;5096398;28;20258;-63
2020/12/02 06:08:41;;;;;;;40.03;26.08;;;;;;;;;;5096257;28;20205;-62
2020/12/02 06:11:26;;;;;;;33.75;24.48;;;;;;;;;;5098936;28;20201;-62
2020/12/02 06:13:54;;;;;;;35.65;25.77;;;;;;;;;;5100028;28;20237;-62
2020/12/02 06:16:29;;;;;;;31.77;23.30;;;;;;;;;;5098553;28;20697;-63
2020/12/02 06:19:03;;;;;;;33.97;23.80;;;;;;;;;;5102250;28;20181;-62
2020/12/02 06:21:35;;;;;;;37.60;25.30;;;;;;;;;;5102257;28;20185;-63
2020/12/02 06:24:02;;;;;;;36.15;25.17;;;;;;;;;;5097910;28;20189;-63
2020/12/02 06:26:39;;;;;;;36.42;24.60;;;;;;;;;;5101087;28;20301;-64
2020/12/02 06:29:07;;;;;;;40.75;25.30;;;;;;;;;;5097036;28;20285;-63
2020/12/02 06:31:34;;;;;;;34.70;25.65;;;;;;;;;;5097599;28;20262;-63
2020/12/02 06:34:06;;;;;;;34.95;25.50;;;;;;;;;;5097004;28;20208;-63
2020/12/02 06:36:35;;;;;;;38.60;26.25;;;;;;;;;;5096594;28;20181;-62
2020/12/02 06:39:06;;;;;;;36.22;24.33;;;;;;;;;;5095014;28;20726;-63
2020/12/02 06:41:34;;;;;;;36.25;25.17;;;;;;;;;;5095739;28;20189;-62
2020/12/02 06:44:19;;;;;;;37.05;25.90;;;;;;;;;;5095548;28;20348;-64
2020/12/02 06:47:07;;;;;;;37.35;25.00;;;;;;;;;;5096411;28;20209;-63
2020/12/02 06:49:36;;;;;;;36.17;26.33;;;;;;;;;;5095879;28;20307;-63
2020/12/02 06:52:05;;;;;;;34.50;24.15;;;;;;;;;;5095648;28;20230;-61
2020/12/02 06:54:33;;;;;;;35.03;24.65;;;;;;;;;;5094907;28;20205;-62
2020/12/02 06:57:03;;;;;;;35.42;23.33;;;;;;;;;;5095302;28;20200;-62
2020/12/02 06:59:30;;;;;;;33.42;24.10;;;;;;;;;;5095132;28;20761;-62
2020/12/02 07:02:03;;;;;;;36.00;24.58;;;;;;;;;;5095957;28;20212;-62
2020/12/02 07:04:34;;;;;;;37.15;24.52;;;;;;;;;;5095828;28;20211;-61
2020/12/02 07:07:01;;;;;;;36.95;23.45;;;;;;;;;;5097013;28;20753;-63
2020/12/02 07:09:28;;;;;;;37.92;24.98;;;;;;;;;;5098132;28;20270;-62
2020/12/02 07:11:57;;;;;;;39.15;24.25;;;;;;;;;;5098697;28;20297;-62
2020/12/02 07:14:24;;;;;;;34.63;24.42;;;;;;;;;;5097505;28;20205;-63
2020/12/02 07:16:57;;;;;;;32.13;23.73;;;;;;;;;;5095199;28;20196;-62
2020/12/02 07:19:26;;;;;;;38.50;24.25;;;;;;;;;;5095024;28;20224;-62
2020/12/02 07:21:54;;;;;;;32.05;24.38;;;;;;;;;;5094763;28;20197;-62
2020/12/02 07:24:23;;;;;;;40.47;27.40;;;;;;;;;;5094865;28;20251;-63
2020/12/02 07:26:51;;;;;;;35.90;24.83;;;;;;;;;;5094582;28;20212;-62
2020/12/02 07:29:19;;;;;;;36.42;25.83;;;;;;;;;;5095249;28;20220;-62
2020/12/02 07:31:46;;;;;;;43.15;26.08;;;;;;;;;;5097505;28;20200;-63
2020/12/02 07:34:14;;;;;;;36.22;25.60;;;;;;;;;;5099673;28;20200;-63
2020/12/02 07:36:41;;;;;;;34.40;25.25;;;;;;;;;;5098174;28;20257;-61
2020/12/02 07:39:11;;;;;;;36.15;23.77;;;;;;;;;;5097083;28;20220;-61
2020/12/02 07:41:45;;;;;;;36.22;25.23;;;;;;;;;;5097483;28;20648;-64
2020/12/02 07:44:12;;;;;;;38.13;24.80;;;;;;;;;;5097712;28;20189;-62
2020/12/02 07:46:39;;;;;;;34.00;24.27;;;;;;;;;;5096419;28;20220;-62
2020/12/02 07:49:06;;;;;;;35.70;25.75;;;;;;;;;;5097262;28;20216;-62
2020/12/02 07:51:35;;;;;;;36.22;24.85;;;;;;;;;;5100882;28;20234;-61
2020/12/02 07:54:06;;;;;;;38.85;25.20;;;;;;;;;;5098029;28;20268;-60
2020/12/02 07:56:34;;;;;;;37.67;25.95;;;;;;;;;;5098042;28;20185;-62
2020/12/02 07:59:09;;;;;;;38.75;26.23;;;;;;;;;;5096264;28;20273;-61
2020/12/02 08:02:02;;;;;;;38.63;26.88;;;;;;;;;;5096299;28;20214;-62
2020/12/02 08:04:34;;;;;;;32.80;23.35;;;;;;;;;;5095589;28;20242;-63
2020/12/02 08:07:03;;;;;;;34.33;22.63;;;;;;;;;;5095046;28;20692;-62
2020/12/02 08:09:34;;;;;;;38.55;25.33;;;;;;;;;;5094429;28;20246;-62
2020/12/02 08:12:02;;;;;;;40.13;25.17;;;;;;;;;;5094682;28;20222;-61
2020/12/02 08:14:31;;;;;;;40.17;26.65;;;;;;;;;;5094651;28;20200;-62
2020/12/02 08:17:01;;;;;;;38.78;25.38;;;;;;;;;;5094427;28;20246;-62
2020/12/02 08:19:29;;;;;;;38.30;25.45;;;;;;;;;;5095140;28;20711;-63
2020/12/02 08:21:56;;;;;;;39.35;25.65;;;;;;;;;;5094539;28;20287;-62
2020/12/02 08:24:28;;;;;;;38.88;25.60;;;;;;;;;;5094152;28;20230;-62
2020/12/02 08:26:56;;;;;;;35.15;24.10;;;;;;;;;;5094503;28;20566;-62
2020/12/02 08:29:26;;;;;;;37.40;26.17;;;;;;;;;;5094480;28;20220;-61
2020/12/02 08:32:00;;;;;;;38.80;27.35;;;;;;;;;;5095052;28;20191;-62
2020/12/02 08:34:28;;;;;;;35.45;25.02;;;;;;;;;;5095488;28;20184;-62
2020/12/02 08:37:10;;;;;;;34.47;23.63;;;;;;;;;;5095539;28;20251;-63
2020/12/02 08:39:37;;;;;;;38.72;25.05;;;;;;;;;;5097078;28;20224;-61
2020/12/02 08:42:05;;;;;;;38.67;26.95;;;;;;;;;;5098571;28;20205;-63
2020/12/02 08:44:32;;;;;;;36.85;26.48;;;;;;;;;;5098255;28;20231;-62
2020/12/02 08:47:00;;;;;;;41.67;27.70;;;;;;;;;;5096226;28;20654;-62
2020/12/02 08:49:29;;;;;;;36.10;25.08;;;;;;;;;;5094390;28;20224;-63
2020/12/02 08:51:56;;;;;;;40.05;26.83;;;;;;;;;;5095079;28;20269;-63
2020/12/02 08:54:24;;;;;;;40.95;27.77;;;;;;;;;;5101239;28;20196;-62
2020/12/02 08:56:51;;;;;;;39.58;29.15;;;;;;;;;;5099279;28;20242;-63
2020/12/02 08:59:20;;;;;;;40.47;25.95;;;;;;;;;;5098413;28;20224;-62
2020/12/02 09:01:46;;;;;;;43.75;27.73;;;;;;;;;;5098527;28;20250;-63
2020/12/02 09:04:13;;;;;;;41.20;26.75;;;;;;;;;;5097542;28;20613;-63
2020/12/02 09:06:40;;;;;;;41.78;27.95;;;;;;;;;;5096851;28;20224;-61
2020/12/02 09:09:06;;;;;;;41.10;28.42;;;;;;;;;;5097323;28;20220;-61
2020/12/02 09:11:37;;;;;;;43.13;28.00;;;;;;;;;;5097763;28;20204;-62
2020/12/02 09:14:04;;;;;;;45.47;28.60;;;;;;;;;;5097661;28;20191;-63
2020/12/02 09:16:33;;;;;;;39.35;27.55;;;;;;;;;;5097281;28;20197;-63
2020/12/02 09:19:00;;;;;;;44.30;28.98;;;;;;;;;;5097259;28;20302;-62
2020/12/02 09:21:28;;;;;;;43.40;29.42;;;;;;;;;;5097026;28;20202;-62
2020/12/02 09:23:55;;;;;;;44.58;29.55;;;;;;;;;;5097844;28;20656;-62
2020/12/02 09:26:22;;;;;;;45.58;28.65;;;;;;;;;;5097876;28;20220;-61
2020/12/02 09:28:49;;;;;;;42.17;30.63;;;;;;;;;;5097250;28;20578;-63
2020/12/02 09:31:17;;;;;;;45.17;30.38;;;;;;;;;;5097162;28;20613;-60
2020/12/02 09:33:44;;;;;;;41.95;28.48;;;;;;;;;;5097259;28;20204;-61
2020/12/02 09:36:11;;;;;;;43.88;28.80;;;;;;;;;;5097002;28;20226;-63
2020/12/02 09:38:39;;;;;;;41.53;27.83;;;;;;;;;;5096348;28;20537;-62
2020/12/02 09:41:24;;;;;;;46.08;27.33;;;;;;;;;;5096384;28;20703;-62
2020/12/02 09:44:00;;;;;;;41.28;28.00;;;;;;;;;;5096659;28;20279;-62
2020/12/02 09:46:29;;;;;;;41.88;28.42;;;;;;;;;;5098375;28;20208;-62
2020/12/02 09:48:57;;;;;;;43.95;29.10;;;;;;;;;;5096575;28;20262;-62
2020/12/02 09:51:25;;;;;;;44.85;28.98;;;;;;;;;;5096125;28;20203;-62
2020/12/02 09:53:53;;;;;;;43.83;29.23;;;;;;;;;;5096397;28;20205;-63
2020/12/02 09:56:20;;;;;;;41.28;29.13;;;;;;;;;;5096337;28;20235;-62
2020/12/02 09:58:47;;;;;;;40.83;29.15;;;;;;;;;;5096237;28;20213;-63
2020/12/02 10:01:16;;;;;;;44.53;28.08;;;;;;;;;;5096386;28;20204;-61
2020/12/02 10:04:01;;;;;;;42.42;29.30;;;;;;;;;;5096276;28;20208;-62
2020/12/02 10:06:35;;;;;;;41.42;27.25;;;;;;;;;;5085513;28;20643;-62
2020/12/02 10:09:17;;;;;;;39.60;27.73;;;;;;;;;;5095665;28;20215;-62
2020/12/02 10:11:48;;;;;;;39.88;26.05;;;;;;;;;;5063300;28;20204;-64
2020/12/02 10:14:27;;;;;;;36.83;27.42;;;;;;;;;;5096522;28;20202;-61
2020/12/02 10:16:58;;;;;;;42.70;27.23;;;;;;;;;;5096531;28;20196;-61
2020/12/02 10:19:36;;;;;;;39.70;27.70;;;;;;;;;;5096248;28;20216;-61
2020/12/02 10:22:12;;;;;;;38.22;25.90;;;;;;;;;;5097971;28;20189;-62
2020/12/02 10:24:49;;;;;;;42.13;28.30;;;;;;;;;;5097349;28;20188;-60
2020/12/02 10:27:23;;;;;;;42.15;28.58;;;;;;;;;;5096706;28;20254;-61
2020/12/02 10:30:03;;;;;;;39.33;26.77;;;;;;;;;;5096507;28;20273;-62
2020/12/02 10:32:37;;;;;;;36.80;25.15;;;;;;;;;;5096508;28;20185;-62
2020/12/02 10:35:04;;;;;;;39.75;27.17;;;;;;;;;;5097829;28;20713;-62
2020/12/02 10:37:33;;;;;;;37.58;25.40;;;;;;;;;;5104739;28;20196;-61
2020/12/02 10:40:00;;;;;;;39.70;25.35;;;;;;;;;;5096163;28;20561;-63
2020/12/02 10:42:36;;;;;;;35.83;25.15;;;;;;;;;;5096222;28;20204;-63
2020/12/02 10:45:06;;;;;;;34.10;25.15;;;;;;;;;;5095500;28;20644;-61
2020/12/02 10:47:53;;;;;;;34.13;24.92;;;;;;;;;;5095553;28;20220;-62
2020/12/02 10:50:21;;;;;;;36.63;25.20;;;;;;;;;;5096190;28;20311;-62
2020/12/02 10:52:49;;;;;;;39.80;25.27;;;;;;;;;;5095918;28;20212;-63
2020/12/02 10:55:17;;;;;;;32.50;23.67;;;;;;;;;;5096803;28;20664;-61
2020/12/02 10:57:44;;;;;;;36.47;24.67;;;;;;;;;;5096700;28;20193;-61
2020/12/02 11:00:13;;;;;;;34.35;24.42;;;;;;;;;;5094655;28;20220;-62
2020/12/02 11:02:39;;;;;;;34.97;24.33;;;;;;;;;;5095933;28;20201;-62
2020/12/02 11:05:07;;;;;;;36.75;25.95;;;;;;;;;;5097149;28;20200;-62
2020/12/02 11:07:37;;;;;;;37.03;26.88;;;;;;;;;;5096119;28;20616;-62
2020/12/02 11:10:06;;;;;;;32.85;24.17;;;;;;;;;;5095719;28;20269;-61
2020/12/02 11:12:44;;;;;;;35.45;25.52;;;;;;;;;;5095941;28;20208;-63
2020/12/02 11:15:17;;;;;;;35.63;26.67;;;;;;;;;;5095205;28;20188;-62
2020/12/02 11:18:02;;;;;;;32.95;24.95;;;;;;;;;;5095159;28;20655;-63
2020/12/02 11:20:34;;;;;;;33.00;23.52;;;;;;;;;;5095745;28;20273;-63
2020/12/02 11:23:06;;;;;;;39.80;24.15;;;;;;;;;;5096233;28;20315;-63
2020/12/02 11:25:41;;;;;;;33.60;23.83;;;;;;;;;;5094537;28;20612;-63
2020/12/02 11:28:08;;;;;;;35.03;24.70;;;;;;;;;;5095645;28;20225;-63
2020/12/02 11:30:38;;;;;;;37.20;25.67;;;;;;;;;;5096918;28;20252;-65
2020/12/02 11:33:35;;;;;;;35.85;23.83;;;;;;;;;;5097962;28;20232;-63
2020/12/02 11:36:28;;;;;;;31.58;23.75;;;;;;;;;;5095612;28;20235;-62
2020/12/02 11:39:01;;;;;;;35.28;25.48;;;;;;;;;;5095093;28;20185;-63
2020/12/02 11:41:37;;;;;;;35.88;25.17;;;;;;;;;;5095626;28;20221;-64
2020/12/02 11:44:08;;;;;;;35.30;25.48;;;;;;;;;;5095367;28;20207;-63
2020/12/02 11:46:35;;;;;;;37.03;25.83;;;;;;;;;;5094758;28;20200;-63
2020/12/02 11:49:07;;;;;;;35.60;23.92;;;;;;;;;;5095521;28;20573;-63
2020/12/02 11:51:40;;;;;;;35.38;25.27;;;;;;;;;;5096347;28;20189;-62
2020/12/02 11:54:10;;;;;;;33.88;22.92;;;;;;;;;;5094611;28;20257;-62
2020/12/02 11:56:40;;;;;;;34.50;23.67;;;;;;;;;;5095608;28;20234;-63
2020/12/02 11:59:08;;;;;;;34.60;24.98;;;;;;;;;;5098515;28;20635;-64
2020/12/02 12:01:44;;;;;;;35.75;25.20;;;;;;;;;;5096467;28;20273;-63
2020/12/02 12:04:20;;;;;;;37.65;24.75;;;;;;;;;;5095450;28;20644;-62
2020/12/02 12:06:48;;;;;;;34.25;24.27;;;;;;;;;;5100576;28;20235;-64
2020/12/02 12:09:17;;;;;;;36.53;26.13;;;;;;;;;;5100341;28;20224;-62
2020/12/02 12:11:45;;;;;;;37.33;23.58;;;;;;;;;;5098297;28;20721;-62
2020/12/02 12:14:18;;;;;;;34.90;24.10;;;;;;;;;;5096070;28;20653;-62
2020/12/02 12:16:50;;;;;;;34.70;24.55;;;;;;;;;;5095430;28;20512;-62
2020/12/02 12:19:27;;;;;;;37.55;25.80;;;;;;;;;;5094503;28;20251;-65
2020/12/02 12:22:01;;;;;;;38.45;24.77;;;;;;;;;;5094579;28;20191;-61
2020/12/02 12:24:28;;;;;;;36.38;26.40;;;;;;;;;;5095236;28;20280;-63
2020/12/02 12:26:56;;;;;;;35.42;25.02;;;;;;;;;;5094543;28;20224;-63
2020/12/02 12:29:22;;;;;;;37.65;23.92;;;;;;;;;;5099250;28;20665;-61
2020/12/02 12:31:51;;;;;;;38.40;24.75;;;;;;;;;;5101015;28;20210;-64
2020/12/02 12:34:24;;;;;;;34.53;24.40;;;;;;;;;;5099634;28;20232;-63
2020/12/02 12:36:54;;;;;;;35.10;24.60;;;;;;;;;;5099417;28;20185;-63
2020/12/02 12:39:23;;;;;;;31.95;23.02;;;;;;;;;;5099338;28;20289;-62
2020/12/02 12:41:50;;;;;;;33.17;22.75;;;;;;;;;;5101111;28;20204;-62
2020/12/02 12:44:23;;;;;;;39.85;25.92;;;;;;;;;;5102642;28;20274;-62
2020/12/02 12:46:56;;;;;;;32.83;23.23;;;;;;;;;;5102769;28;20226;-63
2020/12/02 12:49:23;;;;;;;36.33;24.25;;;;;;;;;;5101254;28;20220;-63
2020/12/02 12:51:55;;;;;;;32.72;24.30;;;;;;;;;;5100920;28;20204;-63
2020/12/02 12:54:22;;;;;;;37.78;24.20;;;;;;;;;;5098531;28;20188;-64
2020/12/02 12:56:52;;;;;;;33.25;23.27;;;;;;;;;;5099336;28;20220;-63
2020/12/02 12:59:20;;;;;;;32.55;22.23;;;;;;;;;;5101816;28;20216;-63
2020/12/02 13:01:48;;;;;;;31.55;22.45;;;;;;;;;;5102552;28;20204;-62
2020/12/02 13:04:16;;;;;;;29.00;19.05;;;;;;;;;;5102525;28;20688;-62
2020/12/02 13:07:04;;;;;;;23.33;17.25;;;;;;;;;;5102459;28;20642;-64
2020/12/02 13:09:39;;;;;;;42.35;23.27;;;;;;;;;;5095332;28;20224;-63
2020/12/02 13:12:10;;;;;;;32.40;22.38;;;;;;;;;;5101353;28;20261;-61
2020/12/02 13:14:43;;;;;;;28.30;20.58;;;;;;;;;;5098513;28;20305;-61
2020/12/02 13:17:15;;;;;;;30.30;20.73;;;;;;;;;;5098580;28;20185;-60
2020/12/02 13:19:45;;;;;;;30.55;21.25;;;;;;;;;;5098586;28;20246;-63
2020/12/02 13:22:18;;;;;;;27.40;20.75;;;;;;;;;;5098223;28;20616;-61
2020/12/02 13:24:50;;;;;;;39.92;22.02;;;;;;;;;;5097164;28;20189;-62
2020/12/02 13:27:20;;;;;;;32.95;21.90;;;;;;;;;;5097357;28;20210;-61
2020/12/02 13:29:48;;;;;;;34.63;22.20;;;;;;;;;;5098265;28;20273;-63
2020/12/02 13:32:18;;;;;;;31.63;20.38;;;;;;;;;;5098795;28;20535;-63
2020/12/02 13:34:45;;;;;;;31.35;21.17;;;;;;;;;;5099125;28;20205;-62
2020/12/02 13:37:13;;;;;;;27.30;18.83;;;;;;;;;;5105725;28;20201;-63
2020/12/02 13:39:40;;;;;;;28.48;19.52;;;;;;;;;;5111023;28;20242;-63
2020/12/02 13:42:08;;;;;;;29.08;20.70;;;;;;;;;;5098672;28;20207;-61
2020/12/02 13:44:39;;;;;;;30.88;19.02;;;;;;;;;;5100176;28;20201;-63
2020/12/02 13:47:10;;;;;;;36.35;23.27;;;;;;;;;;5098899;28;20201;-63
2020/12/02 13:49:37;;;;;;;26.65;18.88;;;;;;;;;;5100655;28;20224;-62
2020/12/02 13:52:09;;;;;;;28.23;20.08;;;;;;;;;;5101160;28;20269;-62
2020/12/02 13:54:40;;;;;;;26.90;19.05;;;;;;;;;;5102333;28;20224;-62
2020/12/02 13:57:14;;;;;;;31.13;21.10;;;;;;;;;;5101268;28;20206;-62
2020/12/02 13:59:50;;;;;;;28.33;20.77;;;;;;;;;;5098255;28;20691;-62
2020/12/02 14:02:34;;;;;;;27.70;20.88;;;;;;;;;;5098638;28;20196;-63
2020/12/02 14:05:04;;;;;;;33.55;22.02;;;;;;;;;;5097518;28;20250;-63
2020/12/02 14:07:34;;;;;;;28.98;17.10;;;;;;;;;;5096913;28;20212;-63
2020/12/02 14:10:01;;;;;;;27.70;18.27;;;;;;;;;;5096141;28;20315;-62
2020/12/02 14:12:29;;;;;;;26.75;19.85;;;;;;;;;;5096693;28;20204;-62
2020/12/02 14:14:57;;;;;;;27.05;19.42;;;;;;;;;;5096288;28;20691;-63
2020/12/02 14:17:25;;;;;;;30.45;19.50;;;;;;;;;;5096545;28;20196;-62
2020/12/02 14:19:52;;;;;;;31.90;21.95;;;;;;;;;;5096486;28;20270;-62
2020/12/02 14:22:20;;;;;;;27.13;19.52;;;;;;;;;;5096775;28;20204;-62
2020/12/02 14:24:48;;;;;;;33.47;20.58;;;;;;;;;;5097880;28;20542;-63
2020/12/02 14:27:17;;;;;;;27.02;19.10;;;;;;;;;;5097979;28;20224;-62
2020/12/02 14:29:44;;;;;;;23.80;17.00;;;;;;;;;;5098597;28;20224;-62
2020/12/02 14:32:11;;;;;;;25.02;17.60;;;;;;;;;;5098177;28;20237;-62